X  Close Metar Aviation Weather Data     KRYV Watertown Municipal Airport
Temperature
39°F Temperature
36°F Dewpoint
87% Humidity



Wind
0 MPH
0 KM/H
0 M/S
0 KTS



Calm
North
Current Conditions

Clear Clear
Pressure 1012.92 (hPa) - 29.91 (inHg)
Visibility 9.9 (mile) - 16 (km)
Airport
Airport-code KRYV

Location: Watertown Municipal Airport
Distance: 8 (mi)

Metar:
KRYV 130315Z AUTO 00000KT 10SM CLR 05/02 A2991 RMK AO2 T00450023

Time: 12-04-2021 22:15 CDT